Aviation Digital Data Service (ADDS)

Output produced by METARs form (2102 UTC 23 November 2014)
found at http://aviationweather.gov/adds/metars/
 
KCAR 231725Z 2318/2418 24008KT P6SM BKN050 
     FM240200 20005KT P6SM SCT015 OVC040 
     FM241200 14010KT 5SM -RA BR OVC025